Time;durP1;ratioP1;P1;durP2;ratioP2;P2;SDS_P1;SDS_P2;PMS_P1;PMS_P2;Temp;Humidity;BMP_temperature;BMP_pressure;BME280_temperature;BME280_humidity;BME280_pressure;Samples;Min_cycle;Max_cycle;Signal;HPM_P1;HPM_P2
2020/12/11 00:02:04;;;;;;;67.77;39.27;;;2.20;82.50;;;;;;4912976;28;92303;-75
2020/12/11 00:04:30;;;;;;;65.70;39.87;;;2.20;82.30;;;;;;4957450;28;87477;-75
2020/12/11 00:06:57;;;;;;;66.27;36.50;;;2.20;82.20;;;;;;4941429;28;87465;-75
2020/12/11 00:09:24;;;;;;;67.97;38.17;;;2.20;82.10;;;;;;4958194;28;87678;-75
2020/12/11 00:11:50;;;;;;;63.77;36.17;;;2.30;82.10;;;;;;4957100;28;91425;-75
2020/12/11 00:14:17;;;;;;;64.53;39.30;;;2.30;82.00;;;;;;4956326;28;91214;-75
2020/12/11 00:16:43;;;;;;;69.27;38.30;;;2.30;82.00;;;;;;4940990;28;87487;-75
2020/12/11 00:19:09;;;;;;;62.70;35.93;;;2.30;82.00;;;;;;4940953;28;86422;-75
2020/12/11 00:21:42;;;;;;;66.57;36.27;;;2.30;81.90;;;;;;4956357;28;88268;-75
2020/12/11 00:24:09;;;;;;;65.97;38.50;;;2.30;81.40;;;;;;4958244;28;88613;-75
2020/12/11 00:26:35;;;;;;;69.30;38.73;;;2.30;81.60;;;;;;4957903;28;88294;-75
2020/12/11 00:29:01;;;;;;;70.20;37.90;;;2.30;81.90;;;;;;4941104;28;87175;-75
2020/12/11 00:31:27;;;;;;;65.77;37.47;;;2.10;82.30;;;;;;4940425;28;91362;-75
2020/12/11 00:33:53;;;;;;;63.20;36.90;;;2.00;82.80;;;;;;4958722;28;87907;-75
2020/12/11 00:36:20;;;;;;;67.60;37.47;;;2.00;83.10;;;;;;4940916;28;87281;-75
2020/12/11 00:38:46;;;;;;;64.93;36.57;;;2.00;83.30;;;;;;4940499;28;88216;-75
2020/12/11 00:41:12;;;;;;;63.23;35.73;;;1.90;83.30;;;;;;4957609;28;91316;-75
2020/12/11 00:43:38;;;;;;;59.90;36.23;;;1.90;83.50;;;;;;4944313;28;88250;-75
2020/12/11 00:46:04;;;;;;;60.20;34.37;;;1.90;83.10;;;;;;4962257;28;87027;-75
2020/12/11 00:48:30;;;;;;;63.27;34.77;;;1.80;83.40;;;;;;4913178;28;87771;-75
2020/12/11 00:50:57;;;;;;;61.43;35.53;;;1.80;83.40;;;;;;4923800;28;91411;-74
2020/12/11 00:53:23;;;;;;;59.03;34.17;;;1.80;83.70;;;;;;4923707;28;92152;-75
2020/12/11 00:55:50;;;;;;;64.90;34.07;;;1.90;83.20;;;;;;4925281;28;87376;-75
2020/12/11 00:58:16;;;;;;;58.80;33.43;;;1.90;82.90;;;;;;4941825;28;87553;-75
2020/12/11 01:00:42;;;;;;;58.93;31.97;;;1.90;82.80;;;;;;4924739;28;88632;-75
2020/12/11 01:03:08;;;;;;;63.43;34.27;;;1.90;82.80;;;;;;4941985;28;88392;-75
2020/12/11 01:05:35;;;;;;;60.23;32.93;;;1.90;82.80;;;;;;4943502;28;87293;-75
2020/12/11 01:08:03;;;;;;;51.47;30.47;;;1.80;82.90;;;;;;4944334;28;87889;-74
2020/12/11 01:10:28;;;;;;;59.77;32.73;;;1.70;83.20;;;;;;4961001;28;88386;-75
2020/12/11 01:12:54;;;;;;;58.00;31.20;;;1.80;83.30;;;;;;4944086;28;91448;-75
2020/12/11 01:15:21;;;;;;;54.93;32.90;;;1.80;83.10;;;;;;4958916;28;88144;-75
2020/12/11 01:17:46;;;;;;;59.13;33.73;;;1.90;82.60;;;;;;4943798;28;88277;-75
2020/12/11 01:20:12;;;;;;;57.30;31.67;;;1.90;82.20;;;;;;4950334;28;87999;-75
2020/12/11 01:22:38;;;;;;;57.23;32.13;;;1.90;82.10;;;;;;4923831;28;91573;-75
2020/12/11 01:25:04;;;;;;;55.97;32.90;;;1.90;82.00;;;;;;4908547;28;86991;-75
2020/12/11 01:27:29;;;;;;;54.67;32.40;;;1.90;82.40;;;;;;4907478;28;87188;-75
2020/12/11 01:29:55;;;;;;;51.53;30.43;;;1.90;82.50;;;;;;4941741;28;88320;-75
2020/12/11 01:32:21;;;;;;;61.07;33.10;;;1.90;82.10;;;;;;4941358;28;87858;-75
2020/12/11 01:34:47;;;;;;;56.13;32.77;;;2.00;81.90;;;;;;4924912;28;87290;-75
2020/12/11 01:37:13;;;;;;;57.93;32.37;;;1.90;82.00;;;;;;4923927;28;87065;-75
2020/12/11 01:39:38;;;;;;;48.50;30.13;;;1.90;82.20;;;;;;4922342;28;92695;-75
2020/12/11 01:42:12;;;;;;;55.50;32.60;;;1.90;82.20;;;;;;4907988;28;92039;-74
2020/12/11 01:44:46;;;;;;;59.50;33.77;;;1.90;82.00;;;;;;4922839;28;87072;-75
2020/12/11 01:47:12;;;;;;;56.53;31.97;;;1.80;82.40;;;;;;4941920;28;87380;-74
2020/12/11 01:49:38;;;;;;;61.97;32.87;;;1.80;82.80;;;;;;4940340;28;88349;-75
2020/12/11 01:52:05;;;;;;;61.90;32.40;;;1.90;82.20;;;;;;4923779;28;91419;-75
2020/12/11 01:54:31;;;;;;;56.83;30.83;;;1.90;82.20;;;;;;4918084;28;87402;-75
2020/12/11 01:57:03;;;;;;;57.43;32.20;;;2.00;82.10;;;;;;4943639;28;86752;-75
2020/12/11 01:59:40;;;;;;;61.33;33.47;;;2.00;82.00;;;;;;4960418;28;88184;-75
2020/12/11 02:02:08;;;;;;;55.50;31.67;;;2.10;81.70;;;;;;4943230;28;90020;-75
2020/12/11 02:04:35;;;;;;;62.20;35.30;;;2.20;81.30;;;;;;4942029;28;88320;-75
2020/12/11 02:07:06;;;;;;;56.97;33.67;;;2.20;80.50;;;;;;4918742;28;87222;-75
2020/12/11 02:09:33;;;;;;;57.37;32.17;;;2.20;80.50;;;;;;4923112;28;88341;-75
2020/12/11 02:12:00;;;;;;;58.70;33.67;;;2.20;81.60;;;;;;4933861;28;91671;-75
2020/12/11 02:14:26;;;;;;;57.47;32.93;;;2.20;81.10;;;;;;4959384;28;86953;-75
2020/12/11 02:16:57;;;;;;;58.33;32.97;;;2.20;81.20;;;;;;4942095;28;87092;-75
2020/12/11 02:19:25;;;;;;;59.60;32.77;;;2.10;81.10;;;;;;4942421;28;90766;-75
2020/12/11 02:21:51;;;;;;;65.03;35.10;;;2.10;81.10;;;;;;4942766;28;91607;-75
2020/12/11 02:24:18;;;;;;;58.97;34.30;;;2.10;81.20;;;;;;4942880;28;87230;-75
2020/12/11 02:26:44;;;;;;;66.50;36.47;;;2.10;81.10;;;;;;4961800;28;86897;-75
2020/12/11 02:29:09;;;;;;;62.07;33.67;;;2.20;80.70;;;;;;4942235;28;91179;-75
2020/12/11 02:31:35;;;;;;;56.33;32.40;;;2.10;81.00;;;;;;4942072;28;92308;-75
2020/12/11 02:34:01;;;;;;;61.77;32.73;;;2.10;81.40;;;;;;4944110;28;87351;-75
2020/12/11 02:36:27;;;;;;;59.57;33.37;;;2.20;81.10;;;;;;4943929;28;88319;-75
2020/12/11 02:38:53;;;;;;;64.37;36.63;;;2.20;81.10;;;;;;4945295;28;87679;-75
2020/12/11 02:41:19;;;;;;;57.97;34.73;;;2.10;81.10;;;;;;4943449;28;91333;-75
2020/12/11 02:43:44;;;;;;;62.80;34.23;;;2.20;81.30;;;;;;4942661;28;87584;-75
2020/12/11 02:46:10;;;;;;;57.77;34.17;;;2.20;81.20;;;;;;4926509;28;87872;-75
2020/12/11 02:48:36;;;;;;;68.87;36.10;;;2.20;81.00;;;;;;4958818;28;88638;-75
2020/12/11 02:51:02;;;;;;;65.90;36.10;;;2.20;81.00;;;;;;4959688;28;88491;-75
2020/12/11 02:53:28;;;;;;;64.13;36.20;;;2.30;80.90;;;;;;4941350;28;88097;-75
2020/12/11 02:55:57;;;;;;;64.13;36.37;;;2.20;80.70;;;;;;4958864;28;88115;-75
2020/12/11 02:58:23;;;;;;;66.00;38.10;;;2.10;81.20;;;;;;4941429;28;91774;-75
2020/12/11 03:00:48;;;;;;;71.67;37.23;;;2.00;81.90;;;;;;4942395;28;88111;-75
2020/12/11 03:03:14;;;;;;;72.13;36.90;;;2.00;82.40;;;;;;4958352;28;87004;-75
2020/12/11 03:05:40;;;;;;;59.77;33.83;;;1.90;82.50;;;;;;4959072;28;87672;-75
2020/12/11 03:08:06;;;;;;;71.57;37.40;;;1.90;82.90;;;;;;4941534;28;91788;-75
2020/12/11 03:10:31;;;;;;;66.87;36.50;;;1.90;83.00;;;;;;4925643;28;90772;-75
2020/12/11 03:12:57;;;;;;;64.17;36.23;;;1.90;83.40;;;;;;4942457;28;86947;-75
2020/12/11 03:15:23;;;;;;;70.17;37.17;;;1.90;83.30;;;;;;4941384;28;87765;-75
2020/12/11 03:17:49;;;;;;;66.37;36.20;;;1.90;83.50;;;;;;4958042;28;92604;-75
2020/12/11 03:20:22;;;;;;;63.90;36.20;;;2.00;83.30;;;;;;4959573;28;87639;-75
2020/12/11 03:22:53;;;;;;;61.30;35.03;;;2.00;82.70;;;;;;4942580;28;87250;-75
2020/12/11 03:25:19;;;;;;;69.87;36.67;;;2.00;82.70;;;;;;4941697;28;87870;-75
2020/12/11 03:27:45;;;;;;;67.40;37.20;;;2.00;82.90;;;;;;4941987;28;88417;-75
2020/12/11 03:30:11;;;;;;;68.97;36.47;;;1.90;83.10;;;;;;4958024;28;90352;-75
2020/12/11 03:32:38;;;;;;;66.40;35.63;;;1.90;83.30;;;;;;4941277;28;86987;-75
2020/12/11 03:35:05;;;;;;;67.50;37.23;;;1.80;83.90;;;;;;4942505;28;88368;-75
2020/12/11 03:37:32;;;;;;;70.97;36.43;;;1.80;84.00;;;;;;4941470;28;87860;-75
2020/12/11 03:39:57;;;;;;;67.30;36.33;;;1.80;84.20;;;;;;4941683;28;90754;-75
2020/12/11 03:42:23;;;;;;;76.67;39.60;;;1.80;84.10;;;;;;4941238;28;87964;-75
2020/12/11 03:44:49;;;;;;;63.83;36.27;;;1.80;84.30;;;;;;4958191;28;87602;-75
2020/12/11 03:47:15;;;;;;;71.13;38.20;;;1.80;84.40;;;;;;4941615;28;88245;-75
2020/12/11 03:49:40;;;;;;;75.10;37.07;;;1.80;84.50;;;;;;4940727;28;88236;-75
2020/12/11 03:52:06;;;;;;;73.63;37.83;;;1.80;84.40;;;;;;4959570;28;87049;-75
2020/12/11 03:54:32;;;;;;;70.40;37.90;;;1.90;84.20;;;;;;4958613;28;87100;-75
2020/12/11 03:56:58;;;;;;;69.93;37.33;;;1.80;84.30;;;;;;4935774;28;91426;-75
2020/12/11 03:59:23;;;;;;;72.30;37.77;;;1.80;84.20;;;;;;4937448;28;91056;-76
2020/12/11 04:01:49;;;;;;;73.83;38.10;;;1.80;84.30;;;;;;4912902;28;87157;-75
2020/12/11 04:04:15;;;;;;;76.77;37.77;;;1.80;84.30;;;;;;4959353;28;87201;-75
2020/12/11 04:06:41;;;;;;;67.10;36.27;;;1.80;84.30;;;;;;4940803;28;89021;-75
2020/12/11 04:09:07;;;;;;;75.00;38.00;;;1.80;84.40;;;;;;4959016;28;88874;-75
2020/12/11 04:11:35;;;;;;;67.60;37.20;;;1.80;84.50;;;;;;4956732;28;87165;-75
2020/12/11 04:14:03;;;;;;;72.10;37.00;;;1.90;84.40;;;;;;4925539;28;87355;-75
2020/12/11 04:16:29;;;;;;;72.13;39.53;;;1.90;84.40;;;;;;4925861;28;91012;-74
2020/12/11 04:18:54;;;;;;;68.43;36.77;;;1.90;84.30;;;;;;4932036;28;88177;-75
2020/12/11 04:21:20;;;;;;;72.00;38.53;;;1.90;84.20;;;;;;4948492;28;87240;-75
2020/12/11 04:23:47;;;;;;;66.90;38.17;;;2.00;84.00;;;;;;4962741;28;86323;-75
2020/12/11 04:26:12;;;;;;;68.37;36.73;;;2.00;83.70;;;;;;4944636;28;90568;-75
2020/12/11 04:28:39;;;;;;;68.67;37.27;;;2.00;83.80;;;;;;4958993;28;91597;-75
2020/12/11 04:31:05;;;;;;;65.50;37.47;;;2.00;84.00;;;;;;4943674;28;87950;-75
2020/12/11 04:33:30;;;;;;;67.07;36.77;;;2.00;84.50;;;;;;4960839;28;87053;-75
2020/12/11 04:35:56;;;;;;;74.27;40.13;;;2.00;83.90;;;;;;4944661;28;91217;-75
2020/12/11 04:38:22;;;;;;;66.40;37.77;;;2.00;84.00;;;;;;4927818;28;91124;-75
2020/12/11 04:40:53;;;;;;;65.00;34.63;;;2.00;84.10;;;;;;4944322;28;87029;-76
2020/12/11 04:43:20;;;;;;;69.18;34.85;;;2.00;84.30;;;;;;4943687;28;87908;-75
2020/12/11 04:45:49;;;;;;;75.30;38.43;;;1.90;84.60;;;;;;4944303;28;88990;-75
2020/12/11 04:48:15;;;;;;;66.67;36.70;;;1.90;84.60;;;;;;4944297;28;91309;-75
2020/12/11 04:50:42;;;;;;;70.27;36.20;;;1.80;85.00;;;;;;4961542;28;87064;-75
2020/12/11 04:53:15;;;;;;;69.30;35.80;;;1.90;85.20;;;;;;4914208;28;87933;-75
2020/12/11 04:55:42;;;;;;;;;;;1.90;84.90;;;;;;4941250;28;89133;-75
2020/12/11 04:58:10;;;;;;;66.80;36.20;;;1.90;84.80;;;;;;4926255;28;91492;-75
2020/12/11 05:00:36;;;;;;;68.67;36.10;;;2.00;84.60;;;;;;4924132;28;87295;-75
2020/12/11 05:03:02;;;;;;;68.37;37.97;;;2.00;84.30;;;;;;4957406;28;88099;-75
2020/12/11 05:05:28;;;;;;;73.57;39.47;;;2.10;84.00;;;;;;4959712;28;91746;-75
2020/12/11 05:07:54;;;;;;;74.87;39.03;;;2.10;83.90;;;;;;4927799;28;90982;-75
2020/12/11 05:10:20;;;;;;;69.27;39.63;;;2.10;84.30;;;;;;4943977;28;87008;-75
2020/12/11 05:12:46;;;;;;;66.97;37.67;;;2.10;84.50;;;;;;4927848;28;88065;-75
2020/12/11 05:15:13;;;;;;;62.70;36.47;;;2.10;84.70;;;;;;4944029;28;87773;-75
2020/12/11 05:17:42;;;;;;;71.00;37.93;;;2.10;84.30;;;;;;4943526;28;87717;-75
2020/12/11 05:20:10;;;;;;;73.97;39.93;;;2.10;84.10;;;;;;4942793;28;87979;-75
2020/12/11 05:22:37;;;;;;;79.60;39.57;;;2.10;84.00;;;;;;4943591;28;88586;-75
2020/12/11 05:25:07;;;;;;;68.40;36.73;;;2.10;83.90;;;;;;4943706;28;91348;-75
2020/12/11 05:27:44;;;;;;;73.43;40.70;;;2.00;84.30;;;;;;4942716;28;91345;-75
2020/12/11 05:30:10;;;;;;;71.23;38.30;;;2.00;84.80;;;;;;4943722;28;87188;-75
2020/12/11 05:32:43;;;;;;;78.00;40.40;;;2.00;85.30;;;;;;4942454;28;87547;-75
2020/12/11 05:35:18;;;;;;;73.30;38.37;;;2.00;85.60;;;;;;4943661;28;91855;-75
2020/12/11 05:37:50;;;;;;;73.43;41.57;;;2.00;85.70;;;;;;4959561;28;88008;-75
2020/12/11 05:40:22;;;;;;;77.60;40.85;;;1.90;85.60;;;;;;4959732;28;87211;-75
2020/12/11 05:43:04;;;;;;;80.90;40.57;;;1.90;85.90;;;;;;4923323;28;88618;-75
2020/12/11 05:45:34;;;;;;;74.85;40.83;;;2.00;86.00;;;;;;4922715;28;92356;-75
2020/12/11 05:48:04;;;;;;;79.33;42.70;;;1.90;85.90;;;;;;4924280;28;89524;-75
2020/12/11 05:50:31;;;;;;;78.77;40.63;;;1.90;86.60;;;;;;4923263;28;87077;-75
2020/12/11 05:52:57;;;;;;;82.63;40.47;;;1.80;86.60;;;;;;4924611;28;88009;-75
2020/12/11 05:55:23;;;;;;;83.03;44.23;;;1.80;86.70;;;;;;4924105;28;91054;-75
2020/12/11 05:57:54;;;;;;;76.27;40.77;;;1.80;87.10;;;;;;4907774;28;90811;-75
2020/12/11 06:00:20;;;;;;;81.45;41.78;;;1.80;87.10;;;;;;4924449;28;87498;-75
2020/12/11 06:02:48;;;;;;;86.87;42.73;;;1.70;87.50;;;;;;4938433;28;88264;-75
2020/12/11 06:05:15;;;;;;;77.13;41.30;;;1.80;87.70;;;;;;4920440;28;91812;-75
2020/12/11 06:07:46;;;;;;;76.53;41.87;;;1.80;87.30;;;;;;4940829;28;90990;-75
2020/12/11 06:10:17;;;;;;;79.47;42.80;;;1.80;87.40;;;;;;4919371;28;87995;-75
2020/12/11 06:12:44;;;;;;;84.75;43.20;;;1.80;87.60;;;;;;4923716;28;87606;-75
2020/12/11 06:15:09;;;;;;;86.60;45.17;;;1.70;88.00;;;;;;4907668;28;91877;-75
2020/12/11 06:18:14;;;;;;;90.10;47.10;;;1.70;88.60;;;;;;4922956;28;89342;-76
2020/12/11 06:20:40;;;;;;;88.83;45.57;;;1.60;88.90;;;;;;4919370;28;87420;-75
2020/12/11 06:23:26;;;;;;;85.20;43.63;;;1.70;88.70;;;;;;4942934;28;88307;-75
2020/12/11 06:26:04;;;;;;;86.83;46.47;;;1.70;88.50;;;;;;4939660;28;91827;-75
2020/12/11 06:28:36;;;;;;;85.77;44.20;;;1.70;88.50;;;;;;4929909;28;87600;-75
2020/12/11 06:31:06;;;;;;;;;;;1.70;88.70;;;;;;4934097;28;87171;-75
2020/12/11 06:33:33;;;;;;;93.47;45.93;;;1.60;89.30;;;;;;4944839;28;88159;-75
2020/12/11 06:36:01;;;;;;;91.13;47.03;;;1.60;89.70;;;;;;4903804;28;92389;-75
2020/12/11 06:38:49;;;;;;;88.83;45.50;;;1.60;89.70;;;;;;4928979;28;92136;-75
2020/12/11 06:41:35;;;;;;;88.93;45.43;;;1.60;89.60;;;;;;4929703;28;87373;-75
2020/12/11 06:44:08;;;;;;;92.13;46.67;;;1.70;89.40;;;;;;4946486;28;87162;-75
2020/12/11 06:46:34;;;;;;;94.63;47.78;;;1.70;89.50;;;;;;4934720;28;90552;-75
2020/12/11 06:49:08;;;;;;;91.37;47.27;;;1.70;89.60;;;;;;4920357;28;90340;-76
2020/12/11 06:51:54;;;;;;;92.60;48.07;;;1.70;89.80;;;;;;4919851;28;87908;-75
2020/12/11 06:54:23;;;;;;;90.57;46.63;;;1.70;90.10;;;;;;4919837;28;88311;-74
2020/12/11 06:56:57;;;;;;;93.97;50.27;;;1.60;90.30;;;;;;4920215;28;88267;-75
2020/12/11 06:59:32;;;;;;;96.07;48.20;;;1.60;90.30;;;;;;4931122;28;87842;-75
2020/12/11 07:02:05;;;;;;;91.40;48.40;;;1.70;90.10;;;;;;4943788;28;88016;-75
2020/12/11 07:04:38;;;;;;;94.23;49.67;;;1.80;90.00;;;;;;4936731;28;87103;-75
2020/12/11 07:07:04;;;;;;;94.10;49.00;;;1.90;89.60;;;;;;4936117;28;91501;-75
2020/12/11 07:09:30;;;;;;;87.73;47.63;;;1.90;89.10;;;;;;4931489;28;87599;-75
2020/12/11 07:11:56;;;;;;;83.10;46.93;;;2.00;88.80;;;;;;4930389;28;87918;-75
2020/12/11 07:14:26;;;;;;;93.87;51.40;;;2.10;88.50;;;;;;4913835;28;87339;-75
2020/12/11 07:16:52;;;;;;;98.73;50.30;;;2.00;88.50;;;;;;4936043;28;92153;-75
2020/12/11 07:19:18;;;;;;;98.27;50.73;;;2.00;88.50;;;;;;4952047;28;91436;-75
2020/12/11 07:21:46;;;;;;;98.43;53.03;;;2.00;89.00;;;;;;4935495;28;87048;-75
2020/12/11 07:24:13;;;;;;;104.03;51.70;;;1.90;89.60;;;;;;4939974;28;87331;-76
2020/12/11 07:26:40;;;;;;;95.50;49.83;;;1.80;90.00;;;;;;4937242;28;92439;-77
2020/12/11 07:29:11;;;;;;;102.50;51.67;;;1.90;90.10;;;;;;4944665;28;88358;-78
2020/12/11 07:31:41;;;;;;;98.60;51.63;;;1.90;90.00;;;;;;4954995;28;87700;-76
2020/12/11 07:34:24;;;;;;;112.00;55.23;;;1.90;90.10;;;;;;4946066;28;87698;-76
2020/12/11 07:36:55;;;;;;;100.47;50.33;;;1.90;90.00;;;;;;4939020;28;92205;-76
2020/12/11 07:39:31;;;;;;;101.03;52.53;;;2.00;90.00;;;;;;4923241;28;91409;-76
2020/12/11 07:42:02;;;;;;;95.70;50.50;;;2.10;89.70;;;;;;4930729;28;87490;-77
2020/12/11 07:44:30;;;;;;;102.17;54.63;;;2.20;89.10;;;;;;4932343;28;86531;-76
2020/12/11 07:47:01;;;;;;;108.53;52.37;;;2.30;88.20;;;;;;4932942;28;88728;-77
2020/12/11 07:49:44;;;;;;;105.93;54.97;;;2.30;88.40;;;;;;4931228;28;91671;-77
2020/12/11 07:52:11;;;;;;;96.07;52.10;;;2.30;88.20;;;;;;4939623;28;88757;-76
2020/12/11 07:54:41;;;;;;;104.20;52.77;;;2.30;88.70;;;;;;4914524;28;88373;-78
2020/12/11 07:57:12;;;;;;;105.80;54.20;;;2.20;88.80;;;;;;4927137;28;89854;-78
2020/12/11 07:59:41;;;;;;;115.27;55.77;;;2.20;89.20;;;;;;4923493;28;90292;-78
2020/12/11 08:02:08;;;;;;;104.23;54.23;;;2.30;88.90;;;;;;4934656;28;86985;-77
2020/12/11 08:04:38;;;;;;;110.50;56.53;;;2.40;88.50;;;;;;4955112;28;88753;-76
2020/12/11 08:07:04;;;;;;;110.50;55.33;;;2.40;88.40;;;;;;4933583;28;91721;-78
2020/12/11 08:09:34;;;;;;;106.70;54.27;;;2.40;88.30;;;;;;4936194;28;91378;-77
2020/12/11 08:12:29;;;;;;;109.07;55.97;;;2.50;89.00;;;;;;4935461;28;87074;-79
2020/12/11 08:14:55;;;;;;;108.57;54.17;;;2.60;87.30;;;;;;4944923;28;87513;-78
2020/12/11 08:17:22;;;;;;;101.87;54.67;;;2.70;86.90;;;;;;4935232;28;91881;-78
2020/12/11 08:20:00;;;;;;;109.70;54.97;;;2.90;86.10;;;;;;4951044;28;91942;-78
2020/12/11 08:22:36;;;;;;;110.43;55.50;;;2.90;85.30;;;;;;4933250;28;87439;-78
2020/12/11 08:25:23;;;;;;;97.37;51.80;;;3.00;85.00;;;;;;4945524;28;86966;-78
2020/12/11 08:27:49;;;;;;;103.77;52.73;;;3.10;84.30;;;;;;4955281;28;88169;-78
2020/12/11 08:30:16;;;;;;;95.50;53.10;;;3.20;84.10;;;;;;4934202;28;87563;-77
2020/12/11 08:32:44;;;;;;;110.17;56.00;;;3.20;83.80;;;;;;4948852;28;87590;-78
2020/12/11 08:35:20;;;;;;;106.23;56.53;;;3.30;83.50;;;;;;4945195;28;86630;-77
2020/12/11 08:37:54;;;;;;;97.03;52.83;;;3.30;83.40;;;;;;4920421;28;90887;-77
2020/12/11 08:40:21;;;;;;;100.30;54.70;;;3.20;83.70;;;;;;4930980;28;91749;-77
2020/12/11 08:43:15;;;;;;;98.53;51.63;;;3.10;84.20;;;;;;4953862;28;88616;-77
2020/12/11 08:46:05;;;;;;;102.57;55.13;;;3.20;84.20;;;;;;4951919;28;88420;-78
2020/12/11 08:48:56;;;;;;;106.57;54.47;;;3.20;83.50;;;;;;4924924;28;91843;-77
2020/12/11 08:51:22;;;;;;;103.10;54.00;;;3.20;83.40;;;;;;4948690;28;91742;-78
2020/12/11 08:53:50;;;;;;;110.93;57.33;;;3.10;84.30;;;;;;4951963;28;87520;-78
2020/12/11 08:56:16;;;;;;;104.20;53.87;;;3.10;84.30;;;;;;4956182;28;87399;-78
2020/12/11 08:58:42;;;;;;;106.30;56.13;;;3.00;85.00;;;;;;4926252;28;91408;-77
2020/12/11 09:01:08;;;;;;;110.63;54.90;;;2.90;85.60;;;;;;4967739;28;87729;-78
2020/12/11 09:03:33;;;;;;;103.93;54.33;;;2.90;86.00;;;;;;4939864;28;87129;-77
2020/12/11 09:05:59;;;;;;;111.53;56.07;;;2.90;85.80;;;;;;4962039;28;88421;-78
2020/12/11 09:08:25;;;;;;;110.07;56.03;;;2.90;85.90;;;;;;4937849;28;88181;-78
2020/12/11 09:10:52;;;;;;;99.50;55.63;;;2.90;85.60;;;;;;4951240;28;91982;-74
2020/12/11 09:13:17;;;;;;;102.60;55.70;;;2.90;86.00;;;;;;4961928;28;87151;-75
2020/12/11 09:15:43;;;;;;;102.50;53.67;;;3.00;86.00;;;;;;4961476;28;86934;-76
2020/12/11 09:18:09;;;;;;;103.80;56.37;;;3.00;85.80;;;;;;4926194;28;91563;-76
2020/12/11 09:20:35;;;;;;;102.90;51.73;;;3.10;85.60;;;;;;4935956;28;87870;-76
2020/12/11 09:23:00;;;;;;;103.47;54.50;;;3.00;85.20;;;;;;4925327;28;87242;-75
2020/12/11 09:25:26;;;;;;;103.30;54.90;;;3.00;85.30;;;;;;4935282;28;87823;-75
2020/12/11 09:27:52;;;;;;;109.27;58.00;;;3.00;85.70;;;;;;4943164;28;90715;-75
2020/12/11 09:35:35;;;;;;;97.33;53.73;;;3.60;82.00;;;;;;4962026;28;86947;-77
2020/12/11 09:38:01;;;;;;;101.13;51.63;;;3.80;82.10;;;;;;4938510;28;87921;-78
2020/12/11 09:40:44;;;;;;;98.07;51.50;;;4.00;80.50;;;;;;4956923;28;87963;-77
2020/12/11 09:43:40;;;;;;;92.80;48.73;;;4.20;79.80;;;;;;4942295;28;87281;-76
2020/12/11 09:56:29;;;;;;;91.30;50.60;;;4.60;77.10;;;;;;4958625;28;87822;-76
2020/12/11 09:59:18;;;;;;;89.10;50.53;;;4.80;76.00;;;;;;4957667;28;92346;-76
2020/12/11 10:04:13;;;;;;;90.88;49.55;;;4.80;75.30;;;;;;4938813;28;87419;-75
2020/12/11 10:06:38;;;;;;;83.03;49.10;;;4.70;75.30;;;;;;4933787;28;87932;-76
2020/12/11 10:09:05;;;;;;;86.03;49.63;;;4.70;75.10;;;;;;4937070;28;91299;-76
2020/12/11 10:11:30;;;;;;;82.83;48.03;;;4.80;75.10;;;;;;4930787;28;87657;-75
2020/12/11 10:16:37;;;;;;;79.47;47.70;;;5.10;74.90;;;;;;4937119;28;87778;-77
2020/12/11 10:19:03;;;;;;;75.47;43.93;;;5.30;73.60;;;;;;4934933;28;88889;-76
2020/12/11 10:21:30;;;;;;;77.07;44.27;;;5.30;72.70;;;;;;4953699;28;88118;-75
2020/12/11 10:23:56;;;;;;;77.20;45.10;;;5.20;72.20;;;;;;4936305;28;88541;-75
2020/12/11 10:26:22;;;;;;;81.47;46.23;;;5.20;72.30;;;;;;4957152;28;87031;-75
2020/12/11 10:28:48;;;;;;;80.17;44.73;;;5.00;73.60;;;;;;4940399;28;91498;-75
2020/12/11 10:31:13;;;;;;;76.53;43.47;;;5.10;73.70;;;;;;4948466;28;87520;-76
2020/12/11 10:33:39;;;;;;;74.53;44.63;;;5.10;73.50;;;;;;4929862;28;86948;-76
2020/12/11 10:36:06;;;;;;;84.00;44.70;;;5.20;73.40;;;;;;4942648;28;87581;-75
2020/12/11 10:38:32;;;;;;;79.83;44.63;;;5.30;73.20;;;;;;4941926;28;87841;-75
2020/12/11 10:40:57;;;;;;;77.97;44.90;;;5.40;72.90;;;;;;4959511;28;88354;-75
2020/12/11 10:43:23;;;;;;;70.10;42.20;;;5.50;72.20;;;;;;4936258;28;87032;-75
2020/12/11 10:45:49;;;;;;;72.17;42.53;;;5.30;72.50;;;;;;4940123;28;88312;-75
2020/12/11 10:48:15;;;;;;;79.93;44.57;;;5.20;73.40;;;;;;4953304;28;88749;-75
2020/12/11 10:50:41;;;;;;;74.93;45.37;;;5.10;73.60;;;;;;4933620;28;90637;-75
2020/12/11 10:53:07;;;;;;;78.00;45.87;;;5.10;74.30;;;;;;4949548;28;87134;-75
2020/12/11 10:55:32;;;;;;;77.00;43.77;;;5.30;74.50;;;;;;4952005;28;89675;-75
2020/12/11 10:57:58;;;;;;;70.67;41.57;;;5.20;73.20;;;;;;4952531;28;88185;-75
2020/12/11 11:00:24;;;;;;;77.53;44.30;;;5.30;73.20;;;;;;4939171;28;90755;-75
2020/12/11 11:02:50;;;;;;;73.67;42.27;;;5.20;73.70;;;;;;4952903;28;87450;-75
2020/12/11 11:05:16;;;;;;;72.70;41.67;;;5.20;74.10;;;;;;4932881;28;87102;-75
2020/12/11 11:07:42;;;;;;;75.03;42.67;;;5.20;74.10;;;;;;4947991;28;88073;-76
2020/12/11 11:12:42;;;;;;;72.10;41.57;;;5.30;74.30;;;;;;4948877;28;88074;-76
2020/12/11 11:28:01;;;;;;;71.17;42.30;;;5.10;76.20;;;;;;4959299;28;88222;-76
2020/12/11 11:30:28;;;;;;;68.40;40.73;;;5.00;76.50;;;;;;4943433;28;89473;-78
2020/12/11 11:32:55;;;;;;;63.17;38.70;;;5.00;77.40;;;;;;4942435;28;87181;-77
2020/12/11 11:35:21;;;;;;;65.70;37.27;;;5.00;76.90;;;;;;4942320;28;87716;-76
2020/12/11 11:37:47;;;;;;;63.40;35.47;;;5.00;76.50;;;;;;4940796;28;88767;-75
2020/12/11 11:40:14;;;;;;;57.33;35.10;;;5.00;75.70;;;;;;4954120;28;92650;-76
2020/12/11 11:42:40;;;;;;;62.27;36.60;;;5.00;75.70;;;;;;4941324;28;86962;-75
2020/12/11 11:45:07;;;;;;;57.10;33.80;;;5.00;76.00;;;;;;4960701;28;87047;-76
2020/12/11 11:47:36;;;;;;;57.10;34.80;;;5.00;75.80;;;;;;4943851;28;88305;-78
2020/12/11 11:50:25;;;;;;;61.27;36.70;;;5.00;76.70;;;;;;4942144;28;91588;-76
2020/12/11 11:53:03;;;;;;;64.13;37.67;;;4.90;76.70;;;;;;4942753;28;87383;-76
2020/12/11 11:55:29;;;;;;;60.50;35.80;;;4.90;76.90;;;;;;4944080;28;88407;-76
2020/12/11 11:57:55;;;;;;;57.30;36.10;;;4.80;77.20;;;;;;4942973;28;91580;-76
2020/12/11 12:00:21;;;;;;;54.90;32.97;;;4.80;77.80;;;;;;4943524;28;87675;-77
2020/12/11 12:02:47;;;;;;;54.07;32.63;;;4.90;77.30;;;;;;4960657;28;87980;-76
2020/12/11 12:05:13;;;;;;;54.43;33.03;;;4.80;77.50;;;;;;4942844;28;88071;-76
2020/12/11 12:07:40;;;;;;;57.40;34.07;;;4.90;77.50;;;;;;4942459;28;91524;-75
2020/12/11 12:10:09;;;;;;;55.40;32.17;;;4.90;77.40;;;;;;4942786;28;91156;-76
2020/12/11 12:12:37;;;;;;;56.53;32.27;;;4.90;77.50;;;;;;4944160;28;87638;-76
2020/12/11 12:15:06;;;;;;;54.77;32.13;;;4.90;77.60;;;;;;4960297;28;88272;-76
2020/12/11 12:17:36;;;;;;;59.60;33.33;;;4.90;77.60;;;;;;4941556;28;91242;-76
2020/12/11 12:20:08;;;;;;;54.30;30.50;;;4.90;77.60;;;;;;4941972;28;88079;-76
2020/12/11 12:30:43;;;;;;;59.27;31.63;;;4.90;78.10;;;;;;4939149;28;91070;-76
2020/12/11 12:43:26;;;;;;;48.57;28.00;;;4.80;79.40;;;;;;4961243;28;87493;-75
2020/12/11 12:45:51;;;;;;;53.57;28.40;;;4.80;80.20;;;;;;4932194;28;87767;-75
2020/12/11 12:48:17;;;;;;;49.33;29.37;;;4.80;80.70;;;;;;4957531;28;91000;-75
2020/12/11 12:50:43;;;;;;;46.00;28.03;;;4.80;81.10;;;;;;4934744;28;87898;-75
2020/12/11 12:53:09;;;;;;;42.13;26.73;;;4.80;81.00;;;;;;4942027;28;87931;-75
2020/12/11 12:55:43;;;;;;;42.73;25.53;;;4.80;81.40;;;;;;4934360;28;87219;-75
2020/12/11 12:58:11;;;;;;;47.87;27.90;;;4.80;82.00;;;;;;4957146;28;91349;-75
2020/12/11 13:00:51;;;;;;;47.63;27.77;;;4.80;83.20;;;;;;4947510;28;90893;-75
2020/12/11 13:04:14;;;;;;;49.80;28.03;;;4.70;83.50;;;;;;4943572;28;87676;-75
2020/12/11 13:06:05;;;;;;;47.87;28.70;;;4.80;83.80;;;;;;4930644;28;87965;-75
2020/12/11 13:08:31;;;;;;;50.00;30.00;;;4.80;83.90;;;;;;4942839;28;91764;-75
2020/12/11 13:10:57;;;;;;;46.83;27.30;;;4.80;83.80;;;;;;4942585;28;90170;-75
2020/12/11 13:13:22;;;;;;;40.60;25.93;;;4.70;84.70;;;;;;4947383;28;87402;-75
2020/12/11 13:15:48;;;;;;;45.93;26.67;;;4.70;84.50;;;;;;4938581;28;87108;-75
2020/12/11 13:18:14;;;;;;;43.67;26.30;;;4.60;84.90;;;;;;4926933;28;92226;-75
2020/12/11 13:20:43;;;;;;;46.77;27.17;;;4.60;85.30;;;;;;4941846;28;87553;-76
2020/12/11 13:28:27;;;;;;;39.67;25.40;;;4.80;86.10;;;;;;4951944;28;87945;-75
2020/12/11 13:30:53;;;;;;;37.27;23.83;;;4.70;86.50;;;;;;4927607;28;91526;-76
2020/12/11 13:33:19;;;;;;;40.97;23.97;;;4.70;87.00;;;;;;4939871;28;87393;-75
2020/12/11 13:35:44;;;;;;;40.73;23.67;;;4.70;87.30;;;;;;4939774;28;88461;-73
2020/12/11 13:38:10;;;;;;;41.60;22.60;;;4.70;87.70;;;;;;4930500;28;91221;-75
2020/12/11 13:40:36;;;;;;;40.77;22.80;;;4.80;87.70;;;;;;4939618;28;91391;-73
2020/12/11 13:43:02;;;;;;;37.20;23.70;;;4.70;88.10;;;;;;4944561;28;88716;-75